Time,TemperatureF,DewpointF,PressureIn,WindDirection,WindDirectionDegrees,WindSpeedMPH,WindSpeedGustMPH,Humidity,HourlyPrecipIn,Conditions,Clouds,dailyrainin,SoftwareType,DateUTC
2013-06-07 00:09:00,59.9,57.6,30.05,East,90,0.4,2.0,92,0.00,,,0.00,WUHU216HW,2013-06-07 04:09:00,
2013-06-07 00:19:00,59.9,58.0,30.04,SSE,158,0.4,4.0,93,0.00,,,0.00,WUHU216HW,2013-06-07 04:19:00,
2013-06-07 00:20:00,59.9,58.0,30.04,SSE,158,0.4,4.0,93,0.00,,,0.00,WUHU216HW,2013-06-07 04:20:00,
2013-06-07 00:29:00,59.8,57.8,30.04,NE,45,0.7,1.1,93,0.00,,,0.00,WUHU216HW,2013-06-07 04:29:00,
2013-06-07 00:30:00,59.8,57.4,30.04,NE,45,0.7,1.1,92,0.00,,,0.00,WUHU216HW,2013-06-07 04:30:00,
2013-06-07 00:41:00,59.8,57.8,30.04,NW,315,0.2,1.3,93,0.00,,,0.00,WUHU216HW,2013-06-07 04:41:00,
2013-06-07 00:51:00,59.8,57.8,30.04,NNE,23,1.8,1.8,93,0.00,,,0.00,WUHU216HW,2013-06-07 04:51:00,
2013-06-07 01:01:00,59.8,57.8,30.04,NE,45,0.9,0.9,93,0.00,,,0.00,WUHU216HW,2013-06-07 05:01:00,
2013-06-07 01:11:00,59.8,57.8,30.03,ESE,113,0.0,2.5,93,0.00,,,0.00,WUHU216HW,2013-06-07 05:11:00,
2013-06-07 01:21:00,59.8,57.8,30.03,SE,135,0.4,2.0,93,0.00,,,0.00,WUHU216HW,2013-06-07 05:21:00,
2013-06-07 01:31:00,59.8,57.8,30.02,SSE,158,1.1,1.8,93,0.00,,,0.00,WUHU216HW,2013-06-07 05:31:00,
2013-06-07 01:41:00,59.8,57.8,30.02,ESE,113,0.9,1.1,93,0.00,,,0.00,WUHU216HW,2013-06-07 05:41:00,
2013-06-07 01:51:00,59.6,57.6,30.02,SW,225,1.1,1.8,93,0.00,,,0.00,WUHU216HW,2013-06-07 05:51:00,
2013-06-07 02:01:00,59.6,57.6,30.02,North,0,0.4,0.4,93,0.00,,,0.00,WUHU216HW,2013-06-07 06:01:00,
2013-06-07 02:11:00,59.4,57.4,30.02,ENE,68,0.0,1.1,93,0.00,,,0.00,WUHU216HW,2013-06-07 06:11:00,
2013-06-07 02:21:00,59.4,57.4,30.02,SE,135,0.0,1.8,93,0.00,,,0.00,WUHU216HW,2013-06-07 06:21:00,
2013-06-07 02:31:00,59.4,57.4,30.02,SE,135,0.2,1.3,93,0.00,,,0.00,WUHU216HW,2013-06-07 06:31:00,
2013-06-07 02:41:00,59.4,57.4,30.01,SE,135,0.0,1.1,93,0.00,,,0.00,WUHU216HW,2013-06-07 06:41:00,
2013-06-07 02:52:00,59.4,57.4,30.01,NNW,338,0.4,0.4,93,0.00,,,0.00,WUHU216HW,2013-06-07 06:52:00,
2013-06-07 03:02:00,59.4,57.4,30.00,ENE,68,0.0,1.3,93,0.00,,,0.00,WUHU216HW,2013-06-07 07:02:00,
2013-06-07 03:12:00,59.4,57.4,29.99,SE,135,0.4,0.9,93,0.00,,,0.00,WUHU216HW,2013-06-07 07:12:00,
2013-06-07 03:22:00,59.4,57.4,29.99,SSE,158,0.0,0.4,93,0.00,,,0.00,WUHU216HW,2013-06-07 07:22:00,
2013-06-07 03:32:00,59.4,57.7,29.99,SSE,158,3.4,3.4,94,0.00,,,0.00,WUHU216HW,2013-06-07 07:32:00,
2013-06-07 03:42:00,59.4,57.4,29.98,NNE,23,0.0,1.1,93,0.00,,,0.00,WUHU216HW,2013-06-07 07:42:00,
2013-06-07 03:52:00,59.6,57.9,29.98,SSE,158,0.2,2.0,94,0.00,,,0.00,WUHU216HW,2013-06-07 07:52:00,
2013-06-07 04:02:00,59.6,57.9,29.98,SSE,158,0.0,1.3,94,0.00,,,0.00,WUHU216HW,2013-06-07 08:02:00,
2013-06-07 04:12:00,59.6,57.6,29.97,ENE,68,0.4,1.1,93,0.00,,,0.00,WUHU216HW,2013-06-07 08:12:00,
2013-06-07 04:22:00,59.6,57.6,29.97,ESE,113,0.4,2.0,93,0.00,,,0.00,WUHU216HW,2013-06-07 08:22:00,
2013-06-07 04:32:00,59.6,57.6,29.96,NE,45,0.4,1.8,93,0.00,,,0.00,WUHU216HW,2013-06-07 08:32:00,
2013-06-07 04:42:00,59.6,57.6,29.97,ESE,113,0.4,3.4,93,0.00,,,0.00,WUHU216HW,2013-06-07 08:42:00,
2013-06-07 04:52:00,59.6,57.6,29.97,ESE,113,0.7,1.8,93,0.00,,,0.00,WUHU216HW,2013-06-07 08:52:00,
2013-06-07 05:02:00,59.6,57.6,29.97,NE,45,0.4,0.9,93,0.00,,,0.00,WUHU216HW,2013-06-07 09:02:00,
2013-06-07 05:12:00,59.6,57.6,29.96,ESE,113,0.9,1.1,93,0.00,,,0.00,WUHU216HW,2013-06-07 09:12:00,
2013-06-07 05:22:00,59.6,57.6,29.96,SE,135,0.7,1.8,93,0.00,,,0.00,WUHU216HW,2013-06-07 09:22:00,
2013-06-07 05:32:00,59.6,57.6,29.96,SSE,158,0.7,1.1,93,0.00,,,0.00,WUHU216HW,2013-06-07 09:32:00,
2013-06-07 05:42:00,59.8,58.1,29.96,SE,135,0.0,1.6,94,0.00,,,0.00,WUHU216HW,2013-06-07 09:42:00,
2013-06-07 05:52:00,59.8,58.1,29.96,North,0,0.0,0.7,94,0.00,,,0.00,WUHU216HW,2013-06-07 09:52:00,
2013-06-07 06:02:00,59.8,58.3,29.96,SSE,158,0.9,1.6,95,0.00,,,0.00,WUHU216HW,2013-06-07 10:02:00,
2013-06-07 06:12:00,59.9,58.5,29.95,SSE,158,0.0,0.9,95,0.00,,,0.00,WUHU216HW,2013-06-07 10:12:00,
2013-06-07 06:22:00,60.1,58.7,29.95,ENE,68,1.6,1.8,95,0.00,,,0.00,WUHU216HW,2013-06-07 10:22:00,
2013-06-07 06:32:00,60.1,58.7,29.95,East,90,0.4,3.4,95,0.00,,,0.00,WUHU216HW,2013-06-07 10:32:00,
2013-06-07 06:42:00,60.1,58.7,29.95,SW,225,0.9,1.3,95,0.00,,,0.00,WUHU216HW,2013-06-07 10:42:00,
2013-06-07 06:52:00,60.3,59.1,29.95,SSE,158,0.7,3.4,96,0.00,,,0.00,WUHU216HW,2013-06-07 10:52:00,
2013-06-07 07:02:00,60.5,59.3,29.95,SSE,158,1.3,3.1,96,0.00,,,0.00,WUHU216HW,2013-06-07 11:02:00,
2013-06-07 07:12:00,60.5,59.3,29.95,SE,135,0.4,1.8,96,0.00,,,0.00,WUHU216HW,2013-06-07 11:12:00,
2013-06-07 07:22:00,60.3,59.1,29.95,ESE,113,2.0,2.2,96,0.00,,,0.00,WUHU216HW,2013-06-07 11:22:00,
2013-06-07 07:32:00,60.3,59.1,29.94,South,180,2.5,2.5,96,0.00,,,0.00,WUHU216HW,2013-06-07 11:32:00,
2013-06-07 07:42:00,60.3,58.9,29.95,NE,45,0.7,1.3,95,0.00,,,0.00,WUHU216HW,2013-06-07 11:42:00,
2013-06-07 07:52:00,60.3,58.9,29.95,ESE,113,1.1,1.8,95,0.00,,,0.00,WUHU216HW,2013-06-07 11:52:00,
2013-06-07 08:02:00,60.3,58.9,29.95,SE,135,0.4,2.7,95,0.00,,,0.00,WUHU216HW,2013-06-07 12:02:00,
2013-06-07 08:12:00,60.3,58.9,29.94,ESE,113,1.1,1.8,95,0.00,,,0.00,WUHU216HW,2013-06-07 12:12:00,
2013-06-07 08:22:00,60.3,58.9,29.94,East,90,2.5,2.9,95,0.00,,,0.00,WUHU216HW,2013-06-07 12:22:00,
2013-06-07 08:32:00,60.5,59.0,29.94,SSE,158,0.7,2.5,95,0.00,,,0.00,WUHU216HW,2013-06-07 12:32:00,
2013-06-07 08:42:00,60.5,59.3,29.94,SSE,158,0.9,2.0,96,0.00,,,0.00,WUHU216HW,2013-06-07 12:42:00,
2013-06-07 08:52:00,60.7,59.5,29.94,SE,135,0.9,1.1,96,0.00,,,0.00,WUHU216HW,2013-06-07 12:52:00,
2013-06-07 09:02:00,60.8,59.7,29.93,SSE,158,3.6,3.6,96,0.00,,,0.00,WUHU216HW,2013-06-07 13:02:00,
2013-06-07 09:12:00,60.8,59.7,29.93,SE,135,0.4,3.1,96,0.00,,,0.00,WUHU216HW,2013-06-07 13:12:00,
2013-06-07 09:22:00,60.8,59.7,29.93,SSE,158,0.7,1.8,96,0.00,,,0.00,WUHU216HW,2013-06-07 13:22:00,
2013-06-07 09:32:00,61.0,59.9,29.94,ENE,68,1.6,3.1,96,0.00,,,0.00,WUHU216HW,2013-06-07 13:32:00,
2013-06-07 09:42:00,60.8,59.7,29.94,East,90,0.0,2.0,96,0.00,,,0.00,WUHU216HW,2013-06-07 13:42:00,
2013-06-07 09:52:00,60.8,59.7,29.93,SSE,158,1.6,1.8,96,0.00,,,0.00,WUHU216HW,2013-06-07 13:52:00,
2013-06-07 10:02:00,60.8,59.7,29.93,SSE,158,1.3,2.2,96,0.00,,,0.00,WUHU216HW,2013-06-07 14:02:00,
2013-06-07 10:12:00,60.8,59.4,29.93,SSE,158,1.3,2.5,95,0.00,,,0.00,WUHU216HW,2013-06-07 14:12:00,
2013-06-07 10:22:00,60.8,59.4,29.93,South,180,0.9,1.1,95,0.00,,,0.00,WUHU216HW,2013-06-07 14:22:00,
2013-06-07 10:32:00,60.8,59.4,29.93,North,0,0.4,1.1,95,0.00,,,0.00,WUHU216HW,2013-06-07 14:32:00,
2013-06-07 10:42:00,60.7,59.2,29.92,ENE,68,0.4,1.6,95,0.00,,,0.00,WUHU216HW,2013-06-07 14:42:00,
2013-06-07 10:52:00,60.7,59.2,29.91,NE,45,1.6,5.4,95,0.00,,,0.00,WUHU216HW,2013-06-07 14:52:00,
2013-06-07 11:02:00,60.8,59.7,29.92,SSE,158,0.0,1.8,96,0.00,,,0.00,WUHU216HW,2013-06-07 15:02:00,
2013-06-07 11:12:00,60.8,59.7,29.92,SSE,158,2.7,2.7,96,0.00,,,0.00,WUHU216HW,2013-06-07 15:12:00,
2013-06-07 11:22:00,61.2,60.0,29.92,NE,45,0.0,2.0,96,0.00,,,0.00,WUHU216HW,2013-06-07 15:22:00,
2013-06-07 11:32:00,61.4,60.2,29.93,South,180,0.4,1.3,96,0.00,,,0.00,WUHU216HW,2013-06-07 15:32:00,
2013-06-07 11:42:00,61.6,60.4,29.93,South,180,0.0,2.9,96,0.00,,,0.00,WUHU216HW,2013-06-07 15:42:00,
2013-06-07 11:52:00,61.6,60.4,29.93,NE,45,0.9,1.1,96,0.00,,,0.00,WUHU216HW,2013-06-07 15:52:00,
2013-06-07 12:02:00,61.7,60.6,29.92,NE,45,1.1,1.6,96,0.00,,,0.00,WUHU216HW,2013-06-07 16:02:00,
2013-06-07 12:12:00,61.9,60.8,29.92,ENE,68,0.4,1.8,96,0.00,,,0.00,WUHU216HW,2013-06-07 16:12:00,
2013-06-07 12:22:00,62.1,60.9,29.92,NE,45,0.7,2.2,96,0.00,,,0.00,WUHU216HW,2013-06-07 16:22:00,
2013-06-07 12:32:00,62.1,60.9,29.92,SSE,158,2.0,2.0,96,0.00,,,0.00,WUHU216HW,2013-06-07 16:32:00,
2013-06-07 12:42:00,62.1,60.9,29.91,NNW,338,0.4,1.3,96,0.00,,,0.00,WUHU216HW,2013-06-07 16:42:00,
2013-06-07 12:52:00,62.3,61.1,29.91,SSE,158,3.4,3.4,96,0.00,,,0.00,WUHU216HW,2013-06-07 16:52:00,
2013-06-07 13:02:00,62.3,61.1,29.91,SSE,158,0.0,2.0,96,0.00,,,0.00,WUHU216HW,2013-06-07 17:02:00,
2013-06-07 13:12:00,62.3,61.1,29.91,East,90,0.7,1.8,96,0.00,,,0.00,WUHU216HW,2013-06-07 17:12:00,
2013-06-07 13:22:00,62.3,61.1,29.91,NE,45,0.2,2.7,96,0.00,,,0.00,WUHU216HW,2013-06-07 17:22:00,
2013-06-07 13:32:00,62.1,60.9,29.89,South,180,2.5,2.5,96,0.00,,,0.00,WUHU216HW,2013-06-07 17:32:00,
2013-06-07 13:42:00,62.3,61.1,29.89,SSE,158,1.6,1.6,96,0.00,,,0.00,WUHU216HW,2013-06-07 17:42:00,
2013-06-07 13:52:00,62.3,61.1,29.89,East,90,1.1,1.6,96,0.00,,,0.00,WUHU216HW,2013-06-07 17:52:00,
2013-06-07 14:02:00,62.3,61.1,29.89,ENE,68,2.0,2.0,96,0.00,,,0.00,WUHU216HW,2013-06-07 18:02:00,
2013-06-07 14:08:00,62.3,61.1,29.89,SSE,158,2.9,2.9,96,0.00,,,0.00,WUHU216HW,2013-06-07 18:08:00,
2013-06-07 14:17:00,62.1,60.9,29.88,NE,45,2.5,3.4,96,0.00,,,0.00,WUHU216HW,2013-06-07 18:17:00,
2013-06-07 14:22:00,61.9,60.8,29.88,ENE,68,2.2,2.5,96,0.00,,,0.00,WUHU216HW,2013-06-07 18:22:00,
2013-06-07 14:32:00,61.9,60.8,29.88,NNE,23,1.6,2.0,96,0.00,,,0.00,WUHU216HW,2013-06-07 18:32:00,
2013-06-07 14:42:00,61.9,60.8,29.87,North,0,0.4,3.1,96,0.00,,,0.00,WUHU216HW,2013-06-07 18:42:00,
2013-06-07 14:53:00,61.7,60.6,29.87,ENE,68,2.5,2.5,96,0.00,,,0.00,WUHU216HW,2013-06-07 18:53:00,
2013-06-07 15:03:00,61.6,60.4,29.87,NE,45,1.1,2.5,96,0.00,,,0.00,WUHU216HW,2013-06-07 19:03:00,
2013-06-07 15:08:00,61.6,60.4,29.86,NE,45,0.4,2.5,96,0.00,,,0.00,WUHU216HW,2013-06-07 19:08:00,
2013-06-07 15:18:00,61.6,60.4,29.86,East,90,2.9,3.1,96,0.00,,,0.00,WUHU216HW,2013-06-07 19:18:00,
2013-06-07 15:28:00,61.6,60.4,29.86,NNW,338,0.4,2.0,96,0.00,,,0.00,WUHU216HW,2013-06-07 19:28:00,
2013-06-07 15:38:00,61.4,60.2,29.85,ENE,68,0.4,3.6,96,0.00,,,0.00,WUHU216HW,2013-06-07 19:38:00,
2013-06-07 15:48:00,61.4,60.2,29.85,NE,45,0.9,3.1,96,0.00,,,0.00,WUHU216HW,2013-06-07 19:48:00,
2013-06-07 15:58:00,61.2,60.0,29.83,NNW,338,0.9,1.8,96,0.00,,,0.00,WUHU216HW,2013-06-07 19:58:00,
2013-06-07 16:08:00,61.2,60.0,29.83,SE,135,0.7,2.7,96,0.00,,,0.00,WUHU216HW,2013-06-07 20:08:00,
2013-06-07 16:18:00,61.4,60.2,29.83,NE,45,1.1,2.0,96,0.00,,,0.00,WUHU216HW,2013-06-07 20:18:00,
2013-06-07 16:28:00,61.6,60.4,29.81,ESE,113,0.9,1.8,96,0.00,,,0.00,WUHU216HW,2013-06-07 20:28:00,
2013-06-07 16:39:00,61.6,60.4,29.81,ESE,113,2.9,2.9,96,0.00,,,0.00,WUHU216HW,2013-06-07 20:39:00,
2013-06-07 16:44:00,61.6,60.4,29.81,SE,135,0.4,2.9,96,0.00,,,0.00,WUHU216HW,2013-06-07 20:44:00,
2013-06-07 16:54:00,61.7,60.6,29.81,NNE,23,0.0,2.2,96,0.00,,,0.00,WUHU216HW,2013-06-07 20:54:00,
2013-06-07 17:04:00,61.6,60.4,29.81,SE,135,1.1,2.2,96,0.00,,,0.00,WUHU216HW,2013-06-07 21:04:00,
2013-06-07 17:14:00,61.6,60.4,29.81,NE,45,0.7,3.1,96,0.00,,,0.00,WUHU216HW,2013-06-07 21:14:00,
2013-06-07 17:19:00,61.6,60.4,29.80,NNE,23,0.9,3.1,96,0.00,,,0.00,WUHU216HW,2013-06-07 21:19:00,
2013-06-07 17:29:00,61.6,60.4,29.80,East,90,1.1,2.5,96,0.00,,,0.00,WUHU216HW,2013-06-07 21:29:00,
2013-06-07 17:39:00,61.6,60.4,29.78,ESE,113,1.1,1.8,96,0.00,,,0.00,WUHU216HW,2013-06-07 21:39:00,
2013-06-07 17:50:00,61.6,60.4,29.79,NE,45,0.9,3.6,96,0.00,,,0.00,WUHU216HW,2013-06-07 21:50:00,
2013-06-07 18:00:00,61.6,60.4,29.79,East,90,0.0,1.8,96,0.00,,,0.00,WUHU216HW,2013-06-07 22:00:00,
2013-06-07 18:10:00,61.4,60.2,29.80,North,0,0.4,1.1,96,0.00,,,0.00,WUHU216HW,2013-06-07 22:10:00,
2013-06-07 18:15:00,61.4,60.2,29.80,North,0,0.9,0.9,96,0.00,,,0.00,WUHU216HW,2013-06-07 22:15:00,
2013-06-07 18:25:00,61.4,60.2,29.78,ENE,68,2.2,2.2,96,0.00,,,0.00,WUHU216HW,2013-06-07 22:25:00,
2013-06-07 18:35:00,61.2,60.0,29.78,SSW,203,1.1,1.8,96,0.00,,,0.00,WUHU216HW,2013-06-07 22:35:00,
2013-06-07 18:45:00,61.2,60.0,29.79,NNW,338,0.0,2.5,96,0.00,,,0.00,WUHU216HW,2013-06-07 22:45:00,
2013-06-07 18:55:00,61.2,60.0,29.79,NE,45,0.0,1.8,96,0.00,,,0.00,WUHU216HW,2013-06-07 22:55:00,
2013-06-07 19:05:00,61.0,59.9,29.79,SE,135,0.9,1.1,96,0.00,,,0.00,WUHU216HW,2013-06-07 23:05:00,
2013-06-07 19:16:00,61.0,59.9,29.78,NE,45,0.4,1.8,96,0.00,,,0.00,WUHU216HW,2013-06-07 23:16:00,
2013-06-07 19:26:00,60.8,59.7,29.77,NNE,23,1.8,4.0,96,0.00,,,0.00,WUHU216HW,2013-06-07 23:26:00,
2013-06-07 19:36:00,60.8,59.7,29.78,North,0,0.7,3.1,96,0.00,,,0.00,WUHU216HW,2013-06-07 23:36:00,
2013-06-07 19:46:00,60.8,59.7,29.76,NNE,23,1.1,1.3,96,0.00,,,0.00,WUHU216HW,2013-06-07 23:46:00,
2013-06-07 19:51:00,60.8,59.7,29.77,North,0,1.8,2.5,96,0.00,,,0.00,WUHU216HW,2013-06-07 23:51:00,
2013-06-07 20:02:00,60.8,59.7,29.76,North,0,0.9,1.3,96,0.00,,,0.00,WUHU216HW,2013-06-08 00:02:00,
2013-06-07 20:12:00,60.8,59.7,29.77,NNW,338,0.4,1.8,96,0.00,,,0.00,WUHU216HW,2013-06-08 00:12:00,
2013-06-07 20:22:00,60.8,59.7,29.76,NNE,23,1.8,1.8,96,0.00,,,0.00,WUHU216HW,2013-06-08 00:22:00,
2013-06-07 20:32:00,60.8,59.7,29.75,WNW,293,1.1,2.5,96,0.00,,,0.00,WUHU216HW,2013-06-08 00:32:00,
2013-06-07 20:42:00,60.8,59.7,29.75,NNE,23,0.4,1.8,96,0.00,,,0.00,WUHU216HW,2013-06-08 00:42:00,
2013-06-07 23:35:00,59.9,58.8,29.69,North,0,1.1,1.1,96,0.00,,,0.00,WUHU216HW,2013-06-08 03:35:00,